Map

Track Data

SID SEASON NUMBER BASIN SUBBASIN NAME ISO_TIME NATURE LAT LON WMO_WIND WMO_PRES WMO_AGENCY TRACK_TYPE DIST2LAND LANDFALL IFLAG USA_AGENCY USA_ATCF_ID USA_LAT USA_LON USA_RECORD USA_STATUS USA_WIND USA_PRES USA_SSHS USA_R34_NE USA_R34_SE USA_R34_SW USA_R34_NW USA_R50_NE USA_R50_SE USA_R50_SW USA_R50_NW USA_R64_NE USA_R64_SE USA_R64_SW USA_R64_NW USA_POCI USA_ROCI USA_RMW USA_EYE TOKYO_LAT TOKYO_LON TOKYO_GRADE TOKYO_WIND TOKYO_PRES TOKYO_R50_DIR TOKYO_R50_LONG TOKYO_R50_SHORT TOKYO_R30_DIR TOKYO_R30_LONG TOKYO_R30_SHORT TOKYO_LAND CMA_LAT CMA_LON CMA_CAT CMA_WIND CMA_PRES HKO_LAT HKO_LON HKO_CAT HKO_WIND HKO_PRES NEWDELHI_LAT NEWDELHI_LON NEWDELHI_GRADE NEWDELHI_WIND NEWDELHI_PRES NEWDELHI_CI NEWDELHI_DP NEWDELHI_POCI REUNION_LAT REUNION_LON REUNION_TYPE REUNION_WIND REUNION_PRES REUNION_TNUM REUNION_CI REUNION_RMW REUNION_R34_NE REUNION_R34_SE REUNION_R34_SW REUNION_R34_NW REUNION_R50_NE REUNION_R50_SE REUNION_R50_SW REUNION_R50_NW REUNION_R64_NE REUNION_R64_SE REUNION_R64_SW REUNION_R64_NW BOM_LAT BOM_LON BOM_TYPE BOM_WIND BOM_PRES BOM_TNUM BOM_CI BOM_RMW BOM_R34_NE BOM_R34_SE BOM_R34_SW BOM_R34_NW BOM_R50_NE BOM_R50_SE BOM_R50_SW BOM_R50_NW BOM_R64_NE BOM_R64_SE BOM_R64_SW BOM_R64_NW BOM_ROCI BOM_POCI BOM_EYE BOM_POS_METHOD BOM_PRES_METHOD NADI_LAT NADI_LON NADI_CAT NADI_WIND NADI_PRES WELLINGTON_LAT WELLINGTON_LON WELLINGTON_WIND WELLINGTON_PRES DS824_LAT DS824_LON DS824_STAGE DS824_WIND DS824_PRES TD9636_LAT TD9636_LON TD9636_STAGE TD9636_WIND TD9636_PRES TD9635_LAT TD9635_LON TD9635_WIND TD9635_PRES TD9635_ROCI NEUMANN_LAT NEUMANN_LON NEUMANN_CLASS NEUMANN_WIND NEUMANN_PRES MLC_LAT MLC_LON MLC_CLASS MLC_WIND MLC_PRES USA_GUST BOM_GUST BOM_GUST_PER REUNION_GUST REUNION_GUST_PER USA_SEAHGT USA_SEARAD_NE USA_SEARAD_SE USA_SEARAD_SW USA_SEARAD_NW STORM_SPEED STORM_DIR
1925021S16121 1925 6 SI WA NOT_NAMED 1925-01-20 23:00:00 NR -16.2000 120.600 main 207 207 __________O___ -1 -16.2000 120.600 7 3 0
1925021S16121 1925 6 SI WA NOT_NAMED 1925-01-21 00:00:00 NR -16.2566 120.613 main 202 197 __________P___ -1 -16.2566 120.613 7 3 170
1925021S16121 1925 6 SI WA NOT_NAMED 1925-01-21 03:00:00 NR -16.4237 120.649 main 197 177 __________P___ -1 -16.4237 120.649 7 3 168
1925021S16121 1925 6 SI WA NOT_NAMED 1925-01-21 06:00:00 NR -16.5808 120.679 main 177 173 __________P___ -1 -16.5808 120.679 7 3 173
1925021S16121 1925 6 SI WA NOT_NAMED 1925-01-21 09:00:00 NR -16.7204 120.697 main 173 169 __________P___ -1 -16.7204 120.697 7 3 174
1925021S16121 1925 6 SI WA NOT_NAMED 1925-01-21 11:00:00 NR -16.8000 120.700 main 169 169 __________O___ -1 -16.8000 120.700 7 2 0
1925021S16121 1925 6 SI WA NOT_NAMED 1925-01-21 12:00:00 NR -16.8351 120.698 main 169 165 __________P___ -1 -16.8351 120.698 7 2 0
1925021S16121 1925 6 SI WA NOT_NAMED 1925-01-21 15:00:00 NR -16.9274 120.679 main 165 162 __________P___ -1 -16.9274 120.679 7 2 199
1925021S16121 1925 6 SI WA NOT_NAMED 1925-01-21 18:00:00 NR -17.0146 120.635 main 172 168 __________P___ -1 -17.0146 120.635 7 2 211
1925021S16121 1925 6 SI WA NOT_NAMED 1925-01-21 21:00:00 NR -17.1157 120.564 main 168 168 __________P___ -1 -17.1157 120.564 7 3 215
1925021S16121 1925 6 SI WA NOT_NAMED 1925-01-21 23:00:00 NR -17.2000 120.500 main 175 175 __________O___ -1 -17.2000 120.500 7 3 212
1925021S16121 1925 6 SI WA NOT_NAMED 1925-01-22 00:00:00 NR -17.2545 120.467 main 173 173 __________P___ -1 -17.2545 120.467 7 4 211
1925021S16121 1925 6 SI WA NOT_NAMED 1925-01-22 03:00:00 NR -17.4405 120.348 main 192 185 __________P___ -1 -17.4405 120.348 7 5 213
1925021S16121 1925 6 SI WA NOT_NAMED 1925-01-22 06:00:00 NR -17.6481 120.200 main 194 187 __________P___ -1 -17.6481 120.200 7 5 216
1925021S16121 1925 6 SI WA NOT_NAMED 1925-01-22 09:00:00 NR -17.8618 120.028 main 195 195 __________P___ -1 -17.8618 120.028 7 5 219
1925021S16121 1925 6 SI WA NOT_NAMED 1925-01-22 11:00:00 NR -18.0000 119.900 main 201 201 __________O___ -1 -18.0000 119.900 7 5 223
1925021S16121 1925 6 SI WA NOT_NAMED 1925-01-22 12:00:00 NR -18.0505 119.847 main 202 197 __________P___ -1 -18.0505 119.847 7 4 228
1925021S16121 1925 6 SI WA NOT_NAMED 1925-01-22 15:00:00 NR -18.1918 119.677 main 197 189 __________P___ -1 -18.1918 119.677 7 5 231
1925021S16121 1925 6 SI WA NOT_NAMED 1925-01-22 18:00:00 NR -18.3425 119.473 main 192 175 __________P___ -1 -18.3425 119.473 7 6 232
1925021S16121 1925 6 SI WA NOT_NAMED 1925-01-22 21:00:00 NR -18.5341 119.214 main 178 156 __________P___ -1 -18.5341 119.214 7 7 231
1925021S16121 1925 6 SI WA NOT_NAMED 1925-01-22 23:00:00 NR -18.7000 119.000 main 156 146 __________O___ -1 -18.7000 119.000 7 8 232
1925021S16121 1925 6 SI WA NOT_NAMED 1925-01-23 00:00:00 NR -18.7911 118.869 main 146 128 __________P___ -1 -18.7911 118.869 7 10 233
1925021S16121 1925 6 SI WA NOT_NAMED 1925-01-23 03:00:00 NR -19.1089 118.419 main 133 102 __________P___ -1 -19.1089 118.419 7 11 232
1925021S16121 1925 6 SI WA NOT_NAMED 1925-01-23 06:00:00 NR -19.4952 117.918 main 102 79 __________P___ -1 -19.4952 117.918 7 13 228
1925021S16121 1925 6 SI WA NOT_NAMED 1925-01-23 09:00:00 NR -19.9532 117.414 main 76 44 __________P___ -1 -19.9532 117.414 7 13 224
1925021S16121 1925 6 SI WA NOT_NAMED 1925-01-23 11:00:00 NR -20.3000 117.100 main 44 22 __________O___ -1 -20.3000 117.100 7 14 218
1925021S16121 1925 6 SI WA NOT_NAMED 1925-01-23 12:00:00 NR -20.5002 116.955 main 22 0 __________P___ -1 -20.5002 116.955 7 15 211
1925021S16121 1925 6 SI WA NOT_NAMED 1925-01-23 15:00:00 NR -21.1635 116.541 main 0 0 __________P___ -1 -21.1635 116.541 7 16 208
1925021S16121 1925 6 SI WA NOT_NAMED 1925-01-23 18:00:00 NR -21.8619 116.173 main 0 0 __________P___ -1 -21.8619 116.173 7 15 205
1925021S16121 1925 6 SI WA NOT_NAMED 1925-01-23 21:00:00 NR -22.5204 115.864 main 0 0 __________P___ -1 -22.5204 115.864 7 14 203
1925021S16121 1925 6 SI WA NOT_NAMED 1925-01-23 23:00:00 NR -22.9000 115.700 main 0 0 __________O___ -1 -22.9000 115.700 7 11 202
1925021S16121 1925 6 SI WA NOT_NAMED 1925-01-24 00:00:00 NR -23.0430 115.630 main 0 0 __________P___ -1 -23.0430 115.630 7 8 203
1925021S16121 1925 6 SI WA NOT_NAMED 1925-01-24 03:00:00 NR -23.3937 115.475 main 0 0 __________P___ -1 -23.3937 115.475 7 7 200
1925021S16121 1925 6 SI WA NOT_NAMED 1925-01-24 06:00:00 NR -23.6681 115.383 main 0 0 __________P___ -1 -23.6681 115.383 7 5 195
1925021S16121 1925 6 SI WA NOT_NAMED 1925-01-24 09:00:00 NR -23.9193 115.328 main 0 0 __________P___ -1 -23.9193 115.328 7 5 190
1925021S16121 1925 6 SI WA NOT_NAMED 1925-01-24 11:00:00 NR -24.1000 115.300 main 0 0 __________O___ -1 -24.1000 115.300 7 6 191
1925021S16121 1925 6 SI WA NOT_NAMED 1925-01-24 12:00:00 NR -24.2125 115.272 main 0 0 __________P___ -1 -24.2125 115.272 7 7 191
1925021S16121 1925 6 SI WA NOT_NAMED 1925-01-24 15:00:00 NR -24.5654 115.196 main 0 0 __________P___ -1 -24.5654 115.196 7 7 189
1925021S16121 1925 6 SI WA NOT_NAMED 1925-01-24 18:00:00 NR -24.9392 115.139 main 0 0 __________P___ -1 -24.9392 115.139 7 8 186
1925021S16121 1925 6 SI WA NOT_NAMED 1925-01-24 21:00:00 NR -25.3307 115.105 main 0 0 __________P___ -1 -25.3307 115.105 7 8 184
1925021S16121 1925 6 SI WA NOT_NAMED 1925-01-24 23:00:00 NR -25.6000 115.100 main 0 0 __________O___ -1 -25.6000 115.100 7 8 183
1925021S16121 1925 6 SI WA NOT_NAMED 1925-01-25 00:00:00 NR -25.7337 115.100 main 0 0 __________P___ -1 -25.7337 115.100 7 8 0
1925021S16121 1925 6 SI WA NOT_NAMED 1925-01-25 03:00:00 NR -26.1454 115.119 main 0 0 __________P___ -1 -26.1454 115.119 7 8 176
1925021S16121 1925 6 SI WA NOT_NAMED 1925-01-25 06:00:00 NR -26.5704 115.166 main 0 0 __________P___ -1 -26.5704 115.166 7 9 173
1925021S16121 1925 6 SI WA NOT_NAMED 1925-01-25 09:00:00 NR -27.0057 115.239 main 0 0 __________P___ -1 -27.0057 115.239 7 9 171
1925021S16121 1925 6 SI WA NOT_NAMED 1925-01-25 11:00:00 NR -27.3000 115.300 main 0 0 __________O___ -1 -27.3000 115.300 7 9 169
1925021S16121 1925 6 SI WA NOT_NAMED 1925-01-25 12:00:00 NR -27.4481 115.334 main 0 0 __________P___ -1 -27.4481 115.334 7 9 168
1925021S16121 1925 6 SI WA NOT_NAMED 1925-01-25 15:00:00 NR -27.8951 115.446 main 0 0 __________P___ -1 -27.8951 115.446 7 9 167
1925021S16121 1925 6 SI WA NOT_NAMED 1925-01-25 18:00:00 NR -28.3456 115.572 main 0 0 __________P___ -1 -28.3456 115.572 7 9 166
1925021S16121 1925 6 SI WA NOT_NAMED 1925-01-25 21:00:00 NR -28.7980 115.707 main 0 0 __________P___ -1 -28.7980 115.707 7 9 165
1925021S16121 1925 6 SI WA NOT_NAMED 1925-01-25 23:00:00 NR -29.1000 115.800 main 0 __________O___ -1 -29.1000 115.800 7 9 166

About IBTrACS Database

This database is a web-friendly format of International Best Track Archive for Climate Stewardship (IBTrACS), a global best track data archive curated by NOAA dating back to 1842.

Updated: 2021-11-26